Nearby METAR Reports

 

KLXT - Lees Summit Muni, Missouri, USA
Distance from station: E 5mi, 9km
Updated: Sat, 15-Dec-2018 10:53am CST
Clear
Clear
 Wind from NNE
Wind: NNE 5 mph , 7 km/h
Temperature: 45°F , 7°C
Wind Chill: 42°F , 6°C
Dew Point: 19°F , -7°C
Humidity: 37%
Barometer: 30.21 inHg , 1023 hPa
Clouds: Clear
Visibility: 10 miles , 16 km
2018/12/15 16:53 KLXT 151653Z AUTO 02004KT 10SM CLR 07/M07 A3021 RMK AO2 SLP236 T00721067
KMKC - Kansas City/Dntn, Missouri, USA
Distance from station: NW 12mi, 19km
Updated: Sat, 15-Dec-2018 10:54am CST
Clear
Clear
 Wind from calm
Wind: Calm
Temperature: 43°F , 6°C
Dew Point: 25°F , -4°C
Humidity: 49%
Barometer: 30.20 inHg , 1022.7 hPa
Clouds: Clear
Visibility: 10 miles , 16 km
2018/12/15 16:54 KMKC 151654Z AUTO 00000KT 10SM CLR 06/M04 A3020 RMK AO2 SLP232 T00561044
 
KIXD - Olathe/Industria, Kansas, USA
Distance from station: WSW 25mi, 41km
Updated: Sat, 15-Dec-2018 10:53am CST
Clear
Clear
 Wind from NNE
Wind: NNE 6 mph , 9 km/h
Temperature: 43°F , 6°C
Wind Chill: 39°F , 4°C
Dew Point: 21°F , -6°C
Humidity: 42%
Barometer: 30.20 inHg , 1022.7 hPa
Clouds: Clear
Visibility: 10 miles , 16 km
2018/12/15 16:53 KIXD 151653Z 03005KT 10SM CLR 06/M06 A3020 RMK AO2 SLP234 T00611056
KMCI - Kansas City/Intl, Missouri, USA
Distance from station: NW 26mi, 42km
Updated: Sat, 15-Dec-2018 10:53am CST
Clear
Clear
 Wind from NE
Wind: NE 6 mph , 9 km/h
Temperature: 43°F , 6°C
Wind Chill: 39°F , 4°C
Dew Point: 18°F , -8°C
Humidity: 36%
Barometer: 30.20 inHg , 1022.7 hPa
Clouds: Clear
Visibility: 10 miles , 16 km
2018/12/15 16:53 KMCI 151653Z 04005KT 10SM CLR 06/M08 A3020 RMK AO2 SLP232 T00611078 $
 
KRCM - Warrensburg Skyh, Missouri, USA
Distance from station: ESE 38mi, 62km
Updated: Sat, 15-Dec-2018 10:55am CST
Clear
Clear
 Wind from N
Wind: N 7 mph , 11 km/h
Temperature: 43°F , 6°C
Wind Chill: 39°F , 4°C
Dew Point: 21°F , -6°C
Humidity: 42%
Barometer: 30.19 inHg , 1022.4 hPa
Clouds: Clear
Visibility: 10 miles , 16 km
2018/12/15 16:55 KRCM 151655Z AUTO 36006KT 10SM CLR 06/M06 A3019 RMK AO2
KLWC - Lawrence, Kansas, USA
Distance from station: W 40mi, 65km
Updated: Sat, 15-Dec-2018 10:52am CST
Clear
Clear
 Wind from calm
Wind: Calm
Temperature: 39°F , 4°C
Dew Point: 25°F , -4°C
Humidity: 56%
Barometer: 30.22 inHg , 1023.4 hPa
Clouds: Clear
Visibility: 10 miles , 16 km
2018/12/15 16:52 KLWC 151652Z AUTO 00000KT 10SM CLR 04/M04 A3022 RMK AO2 SLP242 T00441039
 
KSZL - Whiteman Afb, Missouri, USA
Distance from station: ESE 53mi, 86km
Updated: Sat, 15-Dec-2018 10:56am CST
Clear
Clear
 Wind from NNE
Wind: NNE 9 mph , 15 km/h
Temperature: 43°F , 6°C
Wind Chill: 38°F , 3°C
Dew Point: 25°F , -4°C
Humidity: 49%
Barometer: 30.13 inHg , 1020.3 hPa
Clouds: Clear
Visibility: 10 miles , 16 km
2018/12/15 16:56 KSZL 151656Z 02008KT 10SM CLR 06/M04 A3013 RMK AO2A SLP213 T00601042 $
KSTJ - St. Joseph, Missouri, USA
Distance from station: NNW 59mi, 95km
Updated: Sat, 15-Dec-2018 10:53am CST
Clear
Clear
 Wind from calm
Wind: Calm
Temperature: 36°F , 2°C
Dew Point: 28°F , -2°C
Humidity: 75%
Barometer: 30.22 inHg , 1023.4 hPa
Clouds: Clear
Visibility: 10 miles , 16 km
2018/12/15 16:53 KSTJ 151653Z 00000KT 10SM CLR 02/M02 A3022 RMK AO2 SLP240 T00221017
 
KGLY - Clinton, Missouri, USA
Distance from station: SE 61mi, 98km
Updated: Sat, 15-Dec-2018 9:35am CST
NOT Current
Clear
Clear
 Wind from N
Wind: N 8 mph , 13 km/h
Temperature: 37°F , 3°C
Wind Chill: 31°F , -1°C
Dew Point: 23°F , -5°C
Humidity: 56%
Barometer: 30.19 inHg , 1022.4 hPa
Clouds: Clear
Visibility: 10 miles , 16 km
2018/12/15 15:35 KGLY 151535Z AUTO 01007KT 10SM CLR 03/M05 A3019 RMK AO2
KFOE - Topeka/Forbes, Kansas, USA
Distance from station: W 64mi, 103km
Updated: Sat, 15-Dec-2018 10:53am CST
Clear
Clear
 Wind from WNW
Wind: WNW 3 mph , 6 km/h
Temperature: 43°F , 6°C
Dew Point: 21°F , -6°C
Humidity: 42%
Barometer: 30.22 inHg , 1023.4 hPa
Clouds: Clear
Visibility: 10 miles , 16 km
2018/12/15 16:53 KFOE 151653Z 29003KT 10SM CLR 06/M06 A3022 RMK AO2 SLP240 T00561056
 
KDMO - Sedalia, Missouri, USA
Distance from station: ESE 72mi, 116km
Updated: Sat, 15-Dec-2018 10:53am CST
Clear
Clear
 Wind from NNE
Wind: NNE 9 mph , 15 km/h
Temperature: 43°F , 6°C
Wind Chill: 38°F , 3°C
Dew Point: 23°F , -5°C
Humidity: 46%
Barometer: 30.17 inHg , 1021.7 hPa
Clouds: Clear
Visibility: 10 miles , 16 km
2018/12/15 16:53 KDMO 151653Z AUTO 03008KT 10SM CLR 06/M05 A3017 RMK AO2 SLP223 T00561050
KCDJ - Chillicothe, Missouri, USA
Distance from station: NE 74mi, 120km
Updated: Sat, 15-Dec-2018 10:52am CST

 Wind from N
Wind: N 3 mph , 6 km/h
Temperature: 43°F , 6°C
Dew Point: 25°F , -4°C
Humidity: 49%
Barometer: 30.21 inHg , 1023 hPa
2018/12/15 16:52 KCDJ 151652Z AUTO 35003KT 06/M04 A3021 RMK AO1 SLP241 T00611039
 
KFNB - Falls City/Brenn, Nebraska, USA
Distance from station: NW 96mi, 154km
Updated: Sat, 15-Dec-2018 10:53am CST
Clear
Clear
 Wind from calm
Wind: Calm
Temperature: 39°F , 4°C
Dew Point: 25°F , -4°C
Humidity: 56%
Barometer: 30.20 inHg , 1022.7 hPa
Clouds: Clear
Visibility: 10 miles , 16 km
2018/12/15 16:53 KFNB 151653Z AUTO 00000KT 10SM CLR 04/M04 A3020 RMK AO2 SLP237 T00391039
KVER - Boonville, Missouri, USA
Distance from station: E 96mi, 154km
Updated: Sat, 15-Dec-2018 10:55am CST
Clear
Clear
 Wind from N
Wind: N 3 mph , 6 km/h
Temperature: 43°F , 6°C
Dew Point: 25°F , -4°C
Humidity: 49%
Barometer: 30.16 inHg , 1021.3 hPa
Clouds: Clear
Visibility: 10 miles , 16 km
2018/12/15 16:55 KVER 151655Z AUTO 36003KT 10SM CLR 06/M04 A3016 RMK AO2 T00551037